createdAt,value
2023-02-11T00:00:20.083Z,7.4
2023-02-11T00:01:23.040Z,7.5
2023-02-11T00:02:26.340Z,7.4
2023-02-11T00:03:31.049Z,7.5
2023-02-11T00:04:34.370Z,7.5
2023-02-11T00:05:38.317Z,7.5
2023-02-11T00:06:41.521Z,7.5
2023-02-11T00:07:45.596Z,7.5
2023-02-11T00:08:49.461Z,7.5
2023-02-11T00:09:52.186Z,7.5
2023-02-11T00:10:55.529Z,7.5
2023-02-11T00:11:58.932Z,7.5
2023-02-11T00:13:03.215Z,7.5
2023-02-11T00:14:07.373Z,7.4
2023-02-11T00:15:10.722Z,7.5
2023-02-11T00:16:14.279Z,7.5
2023-02-11T00:17:17.619Z,7.5
2023-02-11T00:18:21.159Z,7.5
2023-02-11T00:19:38.883Z,7.4
2023-02-11T00:20:42.412Z,7.4
2023-02-11T00:21:46.155Z,7.4
2023-02-11T00:22:49.412Z,7.4
2023-02-11T00:23:52.768Z,7.4
2023-02-11T00:24:55.965Z,7.4
2023-02-11T00:25:59.144Z,7.4
2023-02-11T00:27:02.304Z,7.4
2023-02-11T00:28:06.091Z,7.4
2023-02-11T00:29:10.185Z,7.4
2023-02-11T00:30:13.162Z,7.4
2023-02-11T00:31:18.042Z,7.5
2023-02-11T00:32:21.764Z,7.5
2023-02-11T00:33:25.388Z,7.5
2023-02-11T00:34:29.115Z,7.5
2023-02-11T00:35:33.172Z,7.5
2023-02-11T00:36:36.471Z,7.5
2023-02-11T00:37:40.212Z,7.5
2023-02-11T00:38:43.389Z,7.5
2023-02-11T00:39:47.055Z,7.5
2023-02-11T00:40:50.861Z,7.5
2023-02-11T00:41:54.628Z,7.5
2023-02-11T00:42:57.459Z,7.5
2023-02-11T00:44:01.918Z,7.5
2023-02-11T00:45:05.225Z,7.5
2023-02-11T00:46:08.198Z,7.5
2023-02-11T00:47:11.233Z,7.5
2023-02-11T00:48:15.440Z,7.5
2023-02-11T00:49:18.752Z,7.5
2023-02-11T00:50:21.987Z,7.5
2023-02-11T00:51:25.158Z,7.5
2023-02-11T00:52:28.469Z,7.5
2023-02-11T00:53:31.686Z,7.5
2023-02-11T00:54:35.083Z,7.5
2023-02-11T00:55:38.846Z,7.4
2023-02-11T00:56:57.160Z,7.4
2023-02-11T00:58:00.816Z,7.5
2023-02-11T00:59:04.258Z,7.4
2023-02-11T01:00:06.878Z,7.4
2023-02-11T01:01:10.189Z,7.4
2023-02-11T01:02:13.770Z,7.4
2023-02-11T01:03:16.856Z,7.3
2023-02-11T01:04:19.949Z,7.3
2023-02-11T01:05:23.282Z,7.3
2023-02-11T01:06:26.766Z,7.3
2023-02-11T01:07:30.245Z,7.3
2023-02-11T01:08:33.985Z,7.3
2023-02-11T01:09:37.368Z,7.4
2023-02-11T01:10:40.495Z,7.3
2023-02-11T01:11:43.189Z,7.3
2023-02-11T01:12:46.595Z,7.3
2023-02-11T01:13:49.389Z,7.3
2023-02-11T01:14:52.834Z,7.3
2023-02-11T01:15:56.883Z,7.3
2023-02-11T01:17:00.643Z,7.3
2023-02-11T01:18:03.717Z,7.4
2023-02-11T01:19:06.811Z,7.4
2023-02-11T01:20:11.240Z,7.4
2023-02-11T01:21:14.312Z,7.4
2023-02-11T01:22:17.678Z,7.4
2023-02-11T01:23:20.670Z,7.3
2023-02-11T01:24:24.151Z,7.3
2023-02-11T01:25:26.943Z,7.3
2023-02-11T01:26:30.563Z,7.3
2023-02-11T01:27:33.948Z,7.3
2023-02-11T01:28:37.240Z,7.3
2023-02-11T01:29:40.874Z,7.3
2023-02-11T01:30:44.196Z,7.3
2023-02-11T01:31:47.513Z,7.4
2023-02-11T01:32:51.076Z,7.3
2023-02-11T01:33:54.469Z,7.3
2023-02-11T01:34:57.352Z,7.3
2023-02-11T01:36:00.469Z,7.3
2023-02-11T01:37:02.913Z,7.3
2023-02-11T01:38:06.640Z,7.3
2023-02-11T01:39:09.744Z,7.3
2023-02-11T01:40:13.590Z,7.3
2023-02-11T01:41:17.026Z,7.3
2023-02-11T01:42:20.776Z,7.3
2023-02-11T01:43:23.564Z,7.3
2023-02-11T01:44:26.961Z,7.3
2023-02-11T01:45:30.321Z,7.3
2023-02-11T01:46:33.437Z,7.3
2023-02-11T01:47:37.076Z,7.4
2023-02-11T01:48:40.191Z,7.4
2023-02-11T01:49:42.637Z,7.4
2023-02-11T01:50:45.375Z,7.4
2023-02-11T01:51:48.464Z,7.4
2023-02-11T01:52:51.253Z,7.4
2023-02-11T01:53:54.317Z,7.5
2023-02-11T01:54:57.147Z,7.5
2023-02-11T01:56:00.592Z,7.5
2023-02-11T01:57:03.620Z,7.5
2023-02-11T01:58:07.066Z,7.5
2023-02-11T01:59:10.121Z,7.5
2023-02-11T02:00:13.418Z,7.5
2023-02-11T02:01:16.618Z,7.5
2023-02-11T02:02:20.460Z,7.5
2023-02-11T02:03:24.355Z,7.5
2023-02-11T02:04:27.690Z,7.5
2023-02-11T02:05:30.567Z,7.6
2023-02-11T02:06:33.572Z,7.6
2023-02-11T02:07:36.453Z,7.5
2023-02-11T02:08:39.678Z,7.6
2023-02-11T02:09:42.499Z,7.5
2023-02-11T02:10:45.278Z,7.6
2023-02-11T02:11:48.794Z,7.5
2023-02-11T02:12:52.448Z,7.5
2023-02-11T02:13:55.150Z,7.6
2023-02-11T02:14:57.856Z,7.5
2023-02-11T02:16:01.812Z,7.5
2023-02-11T02:17:05.207Z,7.5
2023-02-11T02:18:08.556Z,7.6
2023-02-11T02:19:11.928Z,7.5
2023-02-11T02:20:15.384Z,7.5
2023-02-11T02:21:18.170Z,7.5
2023-02-11T02:22:21.061Z,7.5
2023-02-11T02:23:23.772Z,7.6
2023-02-11T02:24:26.878Z,7.5
2023-02-11T02:25:29.685Z,7.6
2023-02-11T02:26:32.667Z,7.5
2023-02-11T02:27:35.952Z,7.6
2023-02-11T02:28:39.389Z,7.6
2023-02-11T02:29:42.712Z,7.6
2023-02-11T02:30:45.313Z,7.6
2023-02-11T02:31:48.368Z,7.6
2023-02-11T02:32:51.707Z,7.6
2023-02-11T02:33:55.108Z,7.6
2023-02-11T02:34:58.256Z,7.6
2023-02-11T02:36:01.544Z,7.6
2023-02-11T02:37:04.561Z,7.6
2023-02-11T02:38:07.674Z,7.6
2023-02-11T02:39:10.470Z,7.7
2023-02-11T02:40:13.285Z,7.7
2023-02-11T02:41:17.000Z,7.7
2023-02-11T02:42:20.000Z,7.7
2023-02-11T02:43:23.503Z,7.7
2023-02-11T02:44:26.950Z,7.7
2023-02-11T02:45:30.216Z,7.7
2023-02-11T02:46:33.504Z,7.8
2023-02-11T02:47:36.324Z,7.7
2023-02-11T02:48:40.094Z,7.8
2023-02-11T02:49:43.861Z,7.8
2023-02-11T02:50:47.261Z,7.8
2023-02-11T02:51:50.445Z,7.8
2023-02-11T02:52:53.879Z,7.8
2023-02-11T02:53:57.173Z,7.8
2023-02-11T02:54:59.700Z,7.8
2023-02-11T02:56:02.436Z,7.8
2023-02-11T02:57:05.884Z,7.8
2023-02-11T02:58:08.593Z,7.8
2023-02-11T02:59:11.693Z,7.8
2023-02-11T03:00:14.587Z,7.8
2023-02-11T03:01:17.703Z,7.8
2023-02-11T03:02:21.176Z,7.8
2023-02-11T03:03:24.150Z,7.8
2023-02-11T03:04:27.465Z,7.8
2023-02-11T03:05:30.966Z,7.8
2023-02-11T03:06:33.808Z,7.8
2023-02-11T03:07:37.501Z,7.8
2023-02-11T03:08:40.600Z,7.8
2023-02-11T03:09:43.731Z,7.8
2023-02-11T03:10:47.152Z,7.8
2023-02-11T03:11:49.659Z,7.8
2023-02-11T03:12:53.291Z,7.8
2023-02-11T03:13:56.452Z,7.8
2023-02-11T03:15:00.138Z,7.8
2023-02-11T03:16:03.429Z,7.8
2023-02-11T03:17:06.807Z,7.8
2023-02-11T03:18:09.609Z,7.8
2023-02-11T03:19:12.987Z,7.9
2023-02-11T03:20:16.646Z,7.9
2023-02-11T03:21:20.485Z,7.9
2023-02-11T03:22:23.784Z,7.9
2023-02-11T03:23:27.463Z,7.9
2023-02-11T03:24:30.009Z,7.9
2023-02-11T03:25:33.722Z,7.9
2023-02-11T03:26:37.471Z,7.9
2023-02-11T03:27:40.209Z,7.9
2023-02-11T03:28:42.933Z,7.9
2023-02-11T03:29:46.355Z,7.9
2023-02-11T03:30:49.633Z,7.9
2023-02-11T03:31:52.870Z,7.9
2023-02-11T03:32:56.581Z,7.9
2023-02-11T03:33:59.560Z,8
2023-02-11T03:35:03.023Z,8
2023-02-11T03:36:05.752Z,8
2023-02-11T03:37:08.559Z,8
2023-02-11T03:38:11.557Z,8
2023-02-11T03:39:14.990Z,8
2023-02-11T03:40:17.971Z,8
2023-02-11T03:41:21.351Z,8
2023-02-11T03:42:24.482Z,8
2023-02-11T03:43:27.458Z,8
2023-02-11T03:44:30.532Z,8
2023-02-11T03:45:34.062Z,8
2023-02-11T03:46:37.553Z,8
2023-02-11T03:47:40.875Z,8
2023-02-11T03:48:44.115Z,8
2023-02-11T03:49:46.894Z,8
2023-02-11T03:50:49.396Z,8
2023-02-11T03:51:52.138Z,8
2023-02-11T03:52:55.259Z,8
2023-02-11T03:53:58.713Z,8
2023-02-11T03:55:01.859Z,8
2023-02-11T03:56:04.838Z,8
2023-02-11T03:57:08.624Z,8
2023-02-11T03:58:11.679Z,8
2023-02-11T03:59:14.819Z,8
2023-02-11T04:00:17.537Z,8
2023-02-11T04:01:20.792Z,8
2023-02-11T04:02:25.038Z,8
2023-02-11T04:03:28.859Z,8
2023-02-11T04:04:32.277Z,8.1
2023-02-11T04:05:35.521Z,8.1
2023-02-11T04:06:38.903Z,8.1
2023-02-11T04:07:41.351Z,8.1
2023-02-11T04:08:44.864Z,8.1
2023-02-11T04:09:47.944Z,8.1
2023-02-11T04:10:50.848Z,8.1
2023-02-11T04:11:53.716Z,8.1
2023-02-11T04:12:56.709Z,8.1
2023-02-11T04:13:59.802Z,8.1
2023-02-11T04:15:02.881Z,8.1
2023-02-11T04:16:06.458Z,8.1
2023-02-11T04:17:09.248Z,8.1
2023-02-11T04:18:12.650Z,8.1
2023-02-11T04:19:16.097Z,8.1
2023-02-11T04:20:18.627Z,8.1
2023-02-11T04:21:21.053Z,8.1
2023-02-11T04:22:23.784Z,8.1
2023-02-11T04:23:26.224Z,8.1
2023-02-11T04:24:29.631Z,8.2
2023-02-11T04:25:32.677Z,8.1
2023-02-11T04:26:36.036Z,8.1
2023-02-11T04:27:38.794Z,8.2
2023-02-11T04:28:42.148Z,8.2
2023-02-11T04:29:44.945Z,8.2
2023-02-11T04:30:48.780Z,8.2
2023-02-11T04:31:52.511Z,8.2
2023-02-11T04:32:55.497Z,8.2
2023-02-11T04:33:59.209Z,8.2
2023-02-11T04:35:02.365Z,8.2
2023-02-11T04:36:05.075Z,8.2
2023-02-11T04:37:08.495Z,8.2
2023-02-11T04:38:11.662Z,8.2
2023-02-11T04:39:14.442Z,8.2
2023-02-11T04:40:18.283Z,8.2
2023-02-11T04:41:21.621Z,8.2
2023-02-11T04:42:24.809Z,8.2
2023-02-11T04:43:27.051Z,8.2
2023-02-11T04:44:30.103Z,8.2
2023-02-11T04:45:33.361Z,8.2
2023-02-11T04:46:36.649Z,8.2
2023-02-11T04:47:39.663Z,8.3
2023-02-11T04:48:43.114Z,8.2
2023-02-11T04:49:46.950Z,8.3
2023-02-11T04:50:49.665Z,8.2
2023-02-11T04:51:52.648Z,8.3
2023-02-11T04:52:56.002Z,8.3
2023-02-11T04:53:59.108Z,8.3
2023-02-11T04:55:02.165Z,8.3
2023-02-11T04:56:05.371Z,8.3
2023-02-11T04:57:09.094Z,8.3
2023-02-11T04:58:12.528Z,8.3
2023-02-11T04:59:15.520Z,8.3
2023-02-11T05:00:19.019Z,8.3
2023-02-11T05:01:22.395Z,8.3
2023-02-11T05:02:26.009Z,8.4
2023-02-11T05:03:29.078Z,8.3
2023-02-11T05:04:32.324Z,8.4
2023-02-11T05:05:36.068Z,8.4
2023-02-11T05:06:39.515Z,8.3
2023-02-11T05:07:42.448Z,8.3
2023-02-11T05:08:45.532Z,8.4
2023-02-11T05:09:48.547Z,8.4
2023-02-11T05:10:51.972Z,8.4
2023-02-11T05:11:55.662Z,8.4
2023-02-11T05:12:59.047Z,8.4
2023-02-11T05:14:02.117Z,8.4
2023-02-11T05:15:04.570Z,8.4
2023-02-11T05:16:07.595Z,8.4
2023-02-11T05:17:10.688Z,8.3
2023-02-11T05:18:13.862Z,8.4
2023-02-11T05:19:16.880Z,8.4
2023-02-11T05:20:20.267Z,8.4
2023-02-11T05:21:24.288Z,8.4
2023-02-11T05:22:27.376Z,8.4
2023-02-11T05:23:31.024Z,8.4
2023-02-11T05:24:33.449Z,8.4
2023-02-11T05:25:36.246Z,8.4
2023-02-11T05:26:38.400Z,8.4
2023-02-11T05:27:41.799Z,8.4
2023-02-11T05:28:45.223Z,8.4
2023-02-11T05:29:48.231Z,8.4
2023-02-11T05:30:51.851Z,8.4
2023-02-11T05:31:55.659Z,8.4
2023-02-11T05:32:58.420Z,8.4
2023-02-11T05:34:00.967Z,8.4
2023-02-11T05:35:03.159Z,8.4
2023-02-11T05:36:06.783Z,8.4
2023-02-11T05:37:10.644Z,8.4
2023-02-11T05:38:14.297Z,8.5
2023-02-11T05:39:17.649Z,8.5
2023-02-11T05:40:20.513Z,8.5
2023-02-11T05:41:23.846Z,8.5
2023-02-11T05:42:26.956Z,8.4
2023-02-11T05:43:30.103Z,8.5
2023-02-11T05:44:33.532Z,8.5
2023-02-11T05:45:36.830Z,8.5
2023-02-11T05:46:40.537Z,8.5
2023-02-11T05:47:44.183Z,8.5
2023-02-11T05:48:47.185Z,8.5
2023-02-11T05:49:50.315Z,8.5
2023-02-11T05:50:53.382Z,8.5
2023-02-11T05:51:56.464Z,8.6
2023-02-11T05:52:59.688Z,8.5
2023-02-11T05:54:03.498Z,8.5
2023-02-11T05:55:06.763Z,8.5
2023-02-11T05:56:09.502Z,8.6
2023-02-11T05:57:12.616Z,8.5
2023-02-11T05:58:16.346Z,8.5
2023-02-11T05:59:19.711Z,8.5
2023-02-11T06:00:23.082Z,8.5
2023-02-11T06:01:26.812Z,8.5
2023-02-11T06:02:30.117Z,8.5
2023-02-11T06:03:34.288Z,8.5
2023-02-11T06:04:37.182Z,8.5
2023-02-11T06:05:39.914Z,8.5
2023-02-11T06:06:42.966Z,8.5
2023-02-11T06:07:46.107Z,8.5
2023-02-11T06:08:50.179Z,8.5
2023-02-11T06:09:54.003Z,8.5
2023-02-11T06:10:57.176Z,8.5
2023-02-11T06:11:59.928Z,8.5
2023-02-11T06:13:02.931Z,8.5
2023-02-11T06:14:06.025Z,8.5
2023-02-11T06:15:09.803Z,8.5
2023-02-11T06:16:13.411Z,8.5
2023-02-11T06:17:17.082Z,8.5
2023-02-11T06:18:20.461Z,8.6
2023-02-11T06:19:23.891Z,8.6
2023-02-11T06:20:26.966Z,8.6
2023-02-11T06:21:45.177Z,8.6
2023-02-11T06:22:47.619Z,8.6
2023-02-11T06:23:50.979Z,8.6
2023-02-11T06:25:02.699Z,8.6
2023-02-11T06:26:06.369Z,8.6
2023-02-11T06:27:08.704Z,8.6
2023-02-11T06:28:11.700Z,8.6
2023-02-11T06:29:16.190Z,8.6
2023-02-11T06:30:19.345Z,8.6
2023-02-11T06:31:23.108Z,8.6
2023-02-11T06:32:46.452Z,8.6
2023-02-11T06:33:51.027Z,8.6
2023-02-11T06:34:53.798Z,8.6
2023-02-11T06:35:56.943Z,8.6
2023-02-11T06:36:59.680Z,8.6
2023-02-11T06:38:02.783Z,8.6
2023-02-11T06:39:05.586Z,8.6
2023-02-11T06:40:09.042Z,8.6
2023-02-11T06:41:12.104Z,8.7
2023-02-11T06:42:15.246Z,8.6
2023-02-11T06:43:18.674Z,8.6
2023-02-11T06:44:21.462Z,8.7
2023-02-11T06:45:24.592Z,8.7
2023-02-11T06:46:28.409Z,8.7
2023-02-11T06:47:31.826Z,8.7
2023-02-11T06:48:34.555Z,8.7
2023-02-11T06:49:38.288Z,8.7
2023-02-11T06:50:41.315Z,8.7
2023-02-11T06:51:44.756Z,8.7
2023-02-11T06:52:47.599Z,8.7
2023-02-11T06:53:50.727Z,8.7
2023-02-11T06:54:54.264Z,8.7
2023-02-11T06:55:57.809Z,8.7
2023-02-11T06:57:01.405Z,8.7
2023-02-11T06:58:04.699Z,8.7
2023-02-11T06:59:07.964Z,8.7
2023-02-11T07:00:11.041Z,8.7
2023-02-11T07:01:14.894Z,8.7
2023-02-11T07:02:21.872Z,8.7
2023-02-11T07:03:25.280Z,8.7
2023-02-11T07:04:27.872Z,8.7
2023-02-11T07:05:30.969Z,8.8
2023-02-11T07:06:34.065Z,8.8
2023-02-11T07:07:36.776Z,8.8
2023-02-11T07:08:39.512Z,8.8
2023-02-11T07:09:43.168Z,8.8
2023-02-11T07:10:45.942Z,8.8
2023-02-11T07:11:49.621Z,8.8
2023-02-11T07:12:52.384Z,8.8
2023-02-11T07:13:55.930Z,8.8
2023-02-11T07:14:59.268Z,8.8
2023-02-11T07:16:01.823Z,8.8
2023-02-11T07:17:05.197Z,8.8
2023-02-11T07:18:08.639Z,8.8
2023-02-11T07:19:11.730Z,8.8
2023-02-11T07:20:15.158Z,8.9
2023-02-11T07:21:17.996Z,8.9
2023-02-11T07:22:21.452Z,8.9
2023-02-11T07:23:24.605Z,8.9
2023-02-11T07:24:28.655Z,8.9
2023-02-11T07:25:31.446Z,9
2023-02-11T07:26:34.518Z,9
2023-02-11T07:27:37.900Z,9
2023-02-11T07:28:41.174Z,9
2023-02-11T07:29:44.549Z,9
2023-02-11T07:30:48.055Z,9
2023-02-11T07:31:51.341Z,9
2023-02-11T07:32:55.125Z,9
2023-02-11T07:33:58.525Z,9
2023-02-11T07:35:02.280Z,9.1
2023-02-11T07:36:05.914Z,9.1
2023-02-11T07:37:09.254Z,9.1
2023-02-11T07:38:11.988Z,9.1
2023-02-11T07:39:14.752Z,9.1
2023-02-11T07:40:17.834Z,9.1
2023-02-11T07:41:20.705Z,9.1
2023-02-11T07:42:24.025Z,9.2
2023-02-11T07:43:27.210Z,9.2
2023-02-11T07:44:30.867Z,9.2
2023-02-11T07:45:34.007Z,9.2
2023-02-11T07:46:37.602Z,9.2
2023-02-11T07:47:40.830Z,9.2
2023-02-11T07:48:44.930Z,9.2
2023-02-11T07:49:48.604Z,9.2
2023-02-11T07:50:51.708Z,9.2
2023-02-11T07:51:55.090Z,9.2
2023-02-11T07:52:58.655Z,9.2
2023-02-11T07:54:02.370Z,9.3
2023-02-11T07:55:05.992Z,9.3
2023-02-11T07:56:09.354Z,9.3
2023-02-11T07:57:12.696Z,9.3
2023-02-11T07:58:15.842Z,9.3
2023-02-11T07:59:19.864Z,9.3
2023-02-11T08:00:22.034Z,9.3
2023-02-11T08:01:25.612Z,9.3
2023-02-11T08:02:28.966Z,9.3
2023-02-11T08:03:32.337Z,9.3
2023-02-11T08:04:35.553Z,9.3
2023-02-11T08:05:38.377Z,9.3
2023-02-11T08:06:41.659Z,9.3
2023-02-11T08:07:44.655Z,9.3
2023-02-11T08:08:47.769Z,9.3
2023-02-11T08:09:50.631Z,9.4
2023-02-11T08:10:53.934Z,9.4
2023-02-11T08:11:56.353Z,9.4
2023-02-11T08:12:59.567Z,9.4
2023-02-11T08:14:02.853Z,9.4
2023-02-11T08:15:06.662Z,9.4
2023-02-11T08:16:10.177Z,9.4
2023-02-11T08:17:14.368Z,9.4
2023-02-11T08:18:17.440Z,9.4
2023-02-11T08:19:20.784Z,9.5
2023-02-11T08:20:24.512Z,9.5
2023-02-11T08:21:28.054Z,9.5
2023-02-11T08:22:31.139Z,9.5
2023-02-11T08:23:34.449Z,9.5
2023-02-11T08:24:37.133Z,9.6
2023-02-11T08:25:40.294Z,9.6
2023-02-11T08:26:43.280Z,9.6
2023-02-11T08:27:46.683Z,9.6
2023-02-11T08:28:49.720Z,9.6
2023-02-11T08:29:53.212Z,9.6
2023-02-11T08:30:56.539Z,9.6
2023-02-11T08:32:00.064Z,9.7
2023-02-11T08:33:02.898Z,9.7
2023-02-11T08:34:06.346Z,9.6
2023-02-11T08:35:09.706Z,9.7
2023-02-11T08:36:13.154Z,9.7
2023-02-11T08:37:16.861Z,9.7
2023-02-11T08:38:20.472Z,9.7
2023-02-11T08:39:23.405Z,9.7
2023-02-11T08:40:26.288Z,9.8
2023-02-11T08:41:29.456Z,9.7
2023-02-11T08:42:32.259Z,9.8
2023-02-11T08:43:35.030Z,9.7
2023-02-11T08:44:38.684Z,9.7
2023-02-11T08:45:41.794Z,9.7
2023-02-11T08:46:45.077Z,9.8
2023-02-11T08:47:48.184Z,9.8
2023-02-11T08:48:51.474Z,9.8
2023-02-11T08:49:54.849Z,9.8
2023-02-11T08:50:58.555Z,9.8
2023-02-11T08:52:01.665Z,9.8
2023-02-11T08:53:04.192Z,9.8
2023-02-11T08:54:07.922Z,9.8
2023-02-11T08:55:10.815Z,9.8
2023-02-11T08:56:14.350Z,9.8
2023-02-11T08:57:17.439Z,9.8
2023-02-11T08:58:20.331Z,9.9
2023-02-11T08:59:23.420Z,9.9
2023-02-11T09:00:27.188Z,9.9
2023-02-11T09:01:30.792Z,9.9
2023-02-11T09:02:35.133Z,9.9
2023-02-11T09:03:38.173Z,9.9
2023-02-11T09:04:41.235Z,10
2023-02-11T09:05:43.860Z,10
2023-02-11T09:06:46.995Z,10
2023-02-11T09:07:49.846Z,10.1
2023-02-11T09:08:53.268Z,10.1
2023-02-11T09:09:56.958Z,10.1
2023-02-11T09:11:00.093Z,10.1
2023-02-11T09:12:03.125Z,10.1
2023-02-11T09:13:06.535Z,10.1
2023-02-11T09:14:09.861Z,10.1
2023-02-11T09:15:12.657Z,10.1
2023-02-11T09:16:15.832Z,10.1
2023-02-11T09:17:18.906Z,10.1
2023-02-11T09:18:22.355Z,10.2
2023-02-11T09:19:25.461Z,10.2
2023-02-11T09:20:28.541Z,10.2
2023-02-11T09:21:31.633Z,10.2
2023-02-11T09:22:34.928Z,10.2
2023-02-11T09:23:38.698Z,10.3
2023-02-11T09:24:42.168Z,10.3
2023-02-11T09:25:44.718Z,10.3
2023-02-11T09:26:47.167Z,10.3
2023-02-11T09:27:50.247Z,10.3
2023-02-11T09:28:54.002Z,10.3
2023-02-11T09:29:56.520Z,10.3
2023-02-11T09:31:00.756Z,10.3
2023-02-11T09:32:09.721Z,10.3
2023-02-11T09:33:13.577Z,10.3
2023-02-11T09:34:16.975Z,10.3
2023-02-11T09:35:19.674Z,10.4
2023-02-11T09:36:22.689Z,10.4
2023-02-11T09:37:25.420Z,10.4
2023-02-11T09:38:29.219Z,10.4
2023-02-11T09:39:32.904Z,10.4
2023-02-11T09:40:35.733Z,10.4
2023-02-11T09:41:39.060Z,10.4
2023-02-11T09:42:42.750Z,10.5
2023-02-11T09:43:46.135Z,10.5
2023-02-11T09:44:50.215Z,10.5
2023-02-11T09:45:53.336Z,10.5
2023-02-11T09:46:56.681Z,10.5
2023-02-11T09:47:59.443Z,10.5
2023-02-11T09:49:03.148Z,10.5
2023-02-11T09:50:06.938Z,10.5
2023-02-11T09:51:10.747Z,10.5
2023-02-11T09:52:14.111Z,10.6
2023-02-11T09:53:17.182Z,10.6
2023-02-11T09:54:20.309Z,10.6
2023-02-11T09:55:24.015Z,10.6
2023-02-11T09:56:27.031Z,10.7
2023-02-11T09:57:30.781Z,10.6
2023-02-11T09:58:34.118Z,10.7
2023-02-11T09:59:37.473Z,10.7
2023-02-11T10:00:40.778Z,10.7
2023-02-11T10:01:43.754Z,10.7
2023-02-11T10:02:48.035Z,10.7
2023-02-11T10:03:50.778Z,10.7
2023-02-11T10:04:54.265Z,10.7
2023-02-11T10:05:58.012Z,10.8
2023-02-11T10:07:01.148Z,10.7
2023-02-11T10:08:03.869Z,10.7
2023-02-11T10:09:07.151Z,10.8
2023-02-11T10:10:10.162Z,10.8
2023-02-11T10:11:32.703Z,10.8
2023-02-11T10:12:36.709Z,10.7
2023-02-11T10:13:42.967Z,10.8
2023-02-11T10:14:45.203Z,10.8
2023-02-11T10:15:47.969Z,10.8
2023-02-11T10:16:51.884Z,10.7
2023-02-11T10:17:54.656Z,10.8
2023-02-11T10:18:58.409Z,10.7
2023-02-11T10:20:01.693Z,10.7
2023-02-11T10:21:05.537Z,10.7
2023-02-11T10:22:09.546Z,10.7
2023-02-11T10:23:13.266Z,10.7
2023-02-11T10:24:16.645Z,10.7
2023-02-11T10:25:19.743Z,10.7
2023-02-11T10:26:23.420Z,10.8
2023-02-11T10:27:26.578Z,10.7
2023-02-11T10:28:30.406Z,10.7
2023-02-11T10:29:33.398Z,10.7
2023-02-11T10:30:36.308Z,10.7
2023-02-11T10:31:39.497Z,10.7
2023-02-11T10:32:43.198Z,10.7
2023-02-11T10:33:46.214Z,10.7
2023-02-11T10:34:49.745Z,10.7
2023-02-11T10:35:52.734Z,10.7
2023-02-11T10:36:55.645Z,10.7
2023-02-11T10:37:58.668Z,10.7
2023-02-11T10:39:01.815Z,10.7
2023-02-11T10:40:05.196Z,10.7
2023-02-11T10:41:07.993Z,10.7
2023-02-11T10:42:11.432Z,10.6
2023-02-11T10:43:14.599Z,10.6
2023-02-11T10:44:18.035Z,10.7
2023-02-11T10:45:21.006Z,10.6
2023-02-11T10:46:24.370Z,10.6
2023-02-11T10:47:27.612Z,10.6
2023-02-11T10:48:31.630Z,10.6
2023-02-11T10:49:35.350Z,10.6
2023-02-11T10:50:38.707Z,10.6
2023-02-11T10:51:41.849Z,10.6
2023-02-11T10:52:45.522Z,10.6
2023-02-11T10:53:49.181Z,10.6
2023-02-11T10:54:51.975Z,10.6
2023-02-11T10:55:54.896Z,10.6
2023-02-11T10:56:58.336Z,10.6
2023-02-11T10:58:02.374Z,10.6
2023-02-11T10:59:05.575Z,10.6
2023-02-11T11:00:09.090Z,10.6
2023-02-11T11:01:25.697Z,10.6
2023-02-11T11:02:29.122Z,10.6
2023-02-11T11:03:32.059Z,10.6
2023-02-11T11:04:35.573Z,10.6
2023-02-11T11:05:38.537Z,10.6
2023-02-11T11:06:41.832Z,10.7
2023-02-11T11:07:44.727Z,10.6
2023-02-11T11:08:48.175Z,10.7
2023-02-11T11:09:51.086Z,10.7
2023-02-11T11:10:54.327Z,10.7
2023-02-11T11:11:57.310Z,10.7
2023-02-11T11:13:00.040Z,10.7
2023-02-11T11:14:04.262Z,10.7
2023-02-11T11:15:07.143Z,10.7
2023-02-11T11:16:11.293Z,10.7
2023-02-11T11:17:15.286Z,10.7
2023-02-11T11:18:24.247Z,10.7
2023-02-11T11:19:27.083Z,10.7
2023-02-11T11:20:30.191Z,10.7
2023-02-11T11:21:34.194Z,10.7
2023-02-11T11:22:37.587Z,10.7
2023-02-11T11:23:40.943Z,10.7
2023-02-11T11:24:44.061Z,10.7
2023-02-11T11:25:47.168Z,10.7
2023-02-11T11:26:50.161Z,10.7
2023-02-11T11:27:53.153Z,10.7
2023-02-11T11:28:56.875Z,10.7
2023-02-11T11:30:00.887Z,10.7
2023-02-11T11:31:04.817Z,10.7
2023-02-11T11:32:09.244Z,10.7
2023-02-11T11:33:13.386Z,10.8
2023-02-11T11:34:16.100Z,10.8
2023-02-11T11:35:19.478Z,10.8
2023-02-11T11:36:22.308Z,10.8
2023-02-11T11:37:26.401Z,10.8
2023-02-11T11:38:29.220Z,10.8
2023-02-11T11:39:31.722Z,10.8
2023-02-11T11:40:35.191Z,10.8
2023-02-11T11:41:38.356Z,10.9
2023-02-11T11:42:41.421Z,10.9
2023-02-11T11:43:44.802Z,10.9
2023-02-11T11:44:47.487Z,10.9
2023-02-11T11:45:51.089Z,10.9
2023-02-11T11:46:54.073Z,10.9
2023-02-11T11:47:57.358Z,10.9
2023-02-11T11:49:00.252Z,10.9
2023-02-11T11:50:02.745Z,10.9
2023-02-11T11:51:06.472Z,10.9
2023-02-11T11:52:09.368Z,10.9
2023-02-11T11:53:12.409Z,10.9
2023-02-11T11:54:15.477Z,11
2023-02-11T11:55:18.924Z,10.9
2023-02-11T11:56:22.605Z,10.9
2023-02-11T11:57:26.322Z,11
2023-02-11T11:58:29.097Z,11
2023-02-11T11:59:32.190Z,11
2023-02-11T12:00:35.232Z,11
2023-02-11T12:01:39.035Z,11
2023-02-11T12:02:42.481Z,11
2023-02-11T12:03:45.381Z,11
2023-02-11T12:04:47.818Z,11
2023-02-11T12:05:51.203Z,11
2023-02-11T12:06:54.690Z,11
2023-02-11T12:07:58.143Z,11
2023-02-11T12:09:01.414Z,11
2023-02-11T12:10:03.298Z,11
2023-02-11T12:11:05.485Z,11.1
2023-02-11T12:12:08.954Z,11
2023-02-11T12:13:11.924Z,11
2023-02-11T12:14:14.937Z,11.1
2023-02-11T12:15:18.324Z,11.1
2023-02-11T12:16:21.465Z,11.1
2023-02-11T12:17:25.367Z,11.1
2023-02-11T12:18:29.113Z,11.1
2023-02-11T12:19:33.173Z,11.1
2023-02-11T12:20:36.240Z,11.2
2023-02-11T12:21:39.150Z,11.1
2023-02-11T12:22:42.234Z,11.2
2023-02-11T12:23:46.036Z,11.2
2023-02-11T12:24:49.131Z,11.2
2023-02-11T12:25:51.837Z,11.2
2023-02-11T12:26:54.694Z,11.2
2023-02-11T12:27:58.284Z,11.2
2023-02-11T12:29:01.768Z,11.2
2023-02-11T12:30:05.153Z,11.2
2023-02-11T12:31:07.931Z,11.2
2023-02-11T12:32:15.189Z,11.3
2023-02-11T12:33:19.200Z,11.3
2023-02-11T12:34:22.577Z,11.3
2023-02-11T12:35:25.696Z,11.3
2023-02-11T12:36:28.827Z,11.3
2023-02-11T12:37:32.094Z,11.3
2023-02-11T12:38:34.368Z,11.3
2023-02-11T12:39:37.430Z,11.3
2023-02-11T12:40:40.300Z,11.3
2023-02-11T12:41:43.663Z,11.3
2023-02-11T12:42:46.325Z,11.3
2023-02-11T12:43:49.363Z,11.3
2023-02-11T12:44:52.366Z,11.3
2023-02-11T12:45:56.176Z,11.3
2023-02-11T12:46:59.227Z,11.2
2023-02-11T12:48:02.221Z,11.2
2023-02-11T12:49:06.362Z,11.2
2023-02-11T12:50:09.456Z,11.2
2023-02-11T12:51:13.132Z,11.2
2023-02-11T12:52:16.198Z,11.2
2023-02-11T12:53:19.308Z,11.2
2023-02-11T12:54:22.776Z,11.2
2023-02-11T12:55:25.771Z,11.2
2023-02-11T12:56:28.245Z,11.2
2023-02-11T12:57:30.887Z,11.1
2023-02-11T12:58:46.152Z,11.2
2023-02-11T12:59:49.443Z,11.1
2023-02-11T13:00:54.101Z,11.1
2023-02-11T13:01:58.452Z,11.1
2023-02-11T13:03:02.108Z,11.1
2023-02-11T13:04:05.097Z,11.1
2023-02-11T13:05:08.544Z,11.1
2023-02-11T13:06:16.274Z,11
2023-02-11T13:07:19.650Z,11
2023-02-11T13:08:22.936Z,11
2023-02-11T13:09:25.796Z,11
2023-02-11T13:10:29.115Z,11
2023-02-11T13:11:33.167Z,11
2023-02-11T13:12:36.452Z,11
2023-02-11T13:13:38.330Z,11
2023-02-11T13:14:41.127Z,11
2023-02-11T13:15:44.962Z,11
2023-02-11T13:16:48.382Z,11
2023-02-11T13:17:52.166Z,11
2023-02-11T13:18:55.908Z,11
2023-02-11T13:19:59.565Z,11
2023-02-11T13:21:03.672Z,11
2023-02-11T13:22:07.041Z,11
2023-02-11T13:23:10.061Z,11
2023-02-11T13:24:13.219Z,11
2023-02-11T13:25:16.516Z,11.1
2023-02-11T13:26:19.253Z,11.1
2023-02-11T13:27:22.271Z,11.1
2023-02-11T13:28:25.254Z,11.1
2023-02-11T13:29:28.571Z,11.1
2023-02-11T13:30:32.096Z,11.1
2023-02-11T13:31:36.180Z,11
2023-02-11T13:32:39.667Z,11
2023-02-11T13:33:42.977Z,11
2023-02-11T13:34:46.078Z,11
2023-02-11T13:35:49.146Z,11
2023-02-11T13:36:52.842Z,11
2023-02-11T13:37:56.338Z,11
2023-02-11T13:39:00.035Z,11
2023-02-11T13:40:03.153Z,10.9
2023-02-11T13:41:06.598Z,11
2023-02-11T13:42:08.544Z,11
2023-02-11T13:43:11.924Z,11
2023-02-11T13:44:15.306Z,10.9
2023-02-11T13:45:18.306Z,11
2023-02-11T13:46:21.693Z,11
2023-02-11T13:47:25.382Z,11
2023-02-11T13:48:27.933Z,11
2023-02-11T13:49:31.380Z,11
2023-02-11T13:50:34.967Z,11
2023-02-11T13:51:38.726Z,11
2023-02-11T13:52:42.427Z,11
2023-02-11T13:53:45.869Z,11
2023-02-11T13:54:49.247Z,11
2023-02-11T13:55:52.893Z,11
2023-02-11T13:56:56.384Z,11
2023-02-11T13:57:59.217Z,11
2023-02-11T13:59:03.363Z,10.9
2023-02-11T14:00:07.467Z,10.9
2023-02-11T14:01:10.372Z,11
2023-02-11T14:02:13.858Z,10.9
2023-02-11T14:03:17.814Z,10.9
2023-02-11T14:04:20.968Z,10.9
2023-02-11T14:05:24.405Z,10.9
2023-02-11T14:06:27.915Z,10.9
2023-02-11T14:07:30.805Z,10.9
2023-02-11T14:08:38.823Z,10.9
2023-02-11T14:09:42.848Z,10.9
2023-02-11T14:10:46.062Z,10.9
2023-02-11T14:11:49.476Z,10.9
2023-02-11T14:12:52.485Z,10.9
2023-02-11T14:13:55.829Z,10.9
2023-02-11T14:15:07.930Z,10.9
2023-02-11T14:16:11.691Z,10.9
2023-02-11T14:17:15.080Z,10.9
2023-02-11T14:18:18.113Z,10.9
2023-02-11T14:19:21.556Z,11
2023-02-11T14:20:24.407Z,11
2023-02-11T14:21:27.910Z,11
2023-02-11T14:22:31.523Z,11
2023-02-11T14:23:34.229Z,11
2023-02-11T14:24:37.336Z,11
2023-02-11T14:25:40.390Z,11
2023-02-11T14:26:42.915Z,11
2023-02-11T14:27:46.647Z,11
2023-02-11T14:28:50.437Z,11
2023-02-11T14:29:54.201Z,11
2023-02-11T14:30:58.180Z,11